Time;durP1;ratioP1;P1;durP2;ratioP2;P2;SDS_P1;SDS_P2;PMS_P1;PMS_P2;Temp;Humidity;BMP_temperature;BMP_pressure;BME280_temperature;BME280_humidity;BME280_pressure;Samples;Min_cycle;Max_cycle;Signal;HPM_P1;HPM_P2
2023/01/15 00:01:24;;;;;;;0.95;0.40;;;10.80;1.00;;;;;;7366199;19;20038;-75
2023/01/15 00:03:56;;;;;;;1.38;0.50;;;10.90;1.00;;;;;;7366169;19;20106;-76
2023/01/15 00:06:27;;;;;;;1.75;0.40;;;10.90;1.00;;;;;;7386068;19;20022;-74
2023/01/15 00:08:58;;;;;;;2.00;0.45;;;10.90;1.00;;;;;;7364686;19;20082;-76
2023/01/15 00:11:27;;;;;;;1.77;0.50;;;10.90;1.00;;;;;;7365210;19;20117;-75
2023/01/15 00:13:58;;;;;;;1.65;0.70;;;10.90;1.00;;;;;;7365895;19;20086;-75
2023/01/15 00:16:30;;;;;;;1.50;0.45;;;10.90;1.00;;;;;;7365672;19;20025;-76
2023/01/15 00:19:03;;;;;;;0.55;0.47;;;10.80;1.00;;;;;;7364493;19;20198;-75
2023/01/15 00:21:33;;;;;;;1.75;0.35;;;10.90;1.00;;;;;;7366554;19;20018;-76
2023/01/15 00:29:28;;;;;;;0.90;0.45;;;10.90;1.00;;;;;;7362694;19;20474;-75
2023/01/15 00:32:03;;;;;;;0.50;0.30;;;10.90;1.00;;;;;;7365637;19;20030;-77
2023/01/15 00:34:33;;;;;;;1.27;0.50;;;10.90;1.00;;;;;;7365184;19;20156;-75
2023/01/15 00:37:03;;;;;;;1.67;0.40;;;10.90;1.00;;;;;;7365714;19;20392;-75
2023/01/15 00:39:33;;;;;;;0.77;0.30;;;10.90;1.00;;;;;;7366976;19;20010;-75
2023/01/15 00:42:03;;;;;;;0.93;0.40;;;10.90;1.00;;;;;;7385657;19;20039;-75
2023/01/15 00:44:34;;;;;;;1.55;0.60;;;11.00;1.00;;;;;;7364221;19;20013;-75
2023/01/15 00:47:08;;;;;;;1.02;0.55;;;11.00;1.00;;;;;;7363466;19;20010;-75
2023/01/15 00:49:37;;;;;;;0.93;0.43;;;11.00;1.00;;;;;;7363801;19;20010;-75
2023/01/15 00:52:07;;;;;;;1.30;0.50;;;11.00;1.00;;;;;;7364544;19;20015;-76
2023/01/15 00:54:37;;;;;;;1.05;0.60;;;11.00;1.00;;;;;;7364508;19;20060;-76
2023/01/15 00:57:10;;;;;;;0.52;0.40;;;11.00;1.00;;;;;;7385101;19;20503;-76
2023/01/15 00:59:40;;;;;;;0.88;0.35;;;11.00;1.00;;;;;;7361698;19;20043;-76
2023/01/15 01:02:12;;;;;;;0.52;0.30;;;11.10;1.00;;;;;;7363659;19;20011;-76
2023/01/15 01:04:42;;;;;;;1.23;0.40;;;11.10;1.00;;;;;;7363881;19;20031;-75
2023/01/15 01:07:12;;;;;;;0.65;0.40;;;11.10;1.00;;;;;;7363270;19;20020;-75
2023/01/15 01:09:42;;;;;;;2.15;0.60;;;11.10;1.00;;;;;;7361890;19;20015;-76
2023/01/15 01:12:12;;;;;;;0.55;0.30;;;11.00;1.00;;;;;;7385206;19;20041;-76
2023/01/15 01:14:42;;;;;;;0.30;0.30;;;10.90;1.00;;;;;;7363062;19;20372;-75
2023/01/15 01:17:15;;;;;;;1.58;0.35;;;11.00;1.00;;;;;;7363343;19;20617;-75
2023/01/15 01:19:45;;;;;;;0.52;0.35;;;10.90;1.00;;;;;;7363222;19;20357;-76
2023/01/15 01:22:14;;;;;;;1.25;0.50;;;11.00;1.00;;;;;;7365355;19;20035;-75
2023/01/15 01:24:44;;;;;;;0.45;0.30;;;10.90;1.00;;;;;;7366161;19;20478;-75
2023/01/15 01:27:15;;;;;;;1.02;0.30;;;10.90;1.00;;;;;;7383021;19;20014;-75
2023/01/15 01:29:45;;;;;;;1.90;0.50;;;10.90;1.00;;;;;;7361343;19;20067;-76
2023/01/15 01:32:17;;;;;;;1.35;0.40;;;11.00;1.00;;;;;;7362738;19;20433;-75
2023/01/15 01:34:48;;;;;;;0.60;0.30;;;11.10;1.00;;;;;;7363705;19;20018;-75
2023/01/15 01:37:18;;;;;;;0.50;0.30;;;11.10;1.00;;;;;;7363321;19;20538;-75
2023/01/15 01:39:48;;;;;;;0.40;0.20;;;11.30;1.00;;;;;;7360420;19;20467;-75
2023/01/15 01:42:19;;;;;;;0.40;0.30;;;11.40;1.00;;;;;;7384279;19;20014;-76
2023/01/15 01:45:11;;;;;;;1.13;0.25;;;11.40;1.00;;;;;;7362379;19;20086;-75
2023/01/15 01:47:43;;;;;;;0.80;0.30;;;11.40;1.00;;;;;;7361427;19;20014;-75
2023/01/15 01:50:15;;;;;;;0.25;0.20;;;11.40;1.00;;;;;;7360692;19;20492;-74
2023/01/15 01:52:49;;;;;;;0.32;0.20;;;11.50;1.00;;;;;;7362446;19;20025;-76
2023/01/15 01:55:23;;;;;;;0.28;0.25;;;11.50;1.00;;;;;;7362840;19;20569;-75
2023/01/15 01:57:56;;;;;;;0.60;0.22;;;11.50;1.00;;;;;;7362460;19;20010;-76
2023/01/15 02:00:26;;;;;;;0.45;0.38;;;11.50;1.00;;;;;;7381435;19;20019;-75
2023/01/15 02:02:59;;;;;;;0.43;0.30;;;11.50;1.00;;;;;;7361962;19;20473;-75
2023/01/15 02:05:32;;;;;;;0.75;0.20;;;11.60;1.00;;;;;;7361847;19;20021;-74
2023/01/15 02:08:03;;;;;;;0.28;0.17;;;11.60;1.00;;;;;;7361165;19;20014;-74
2023/01/15 02:10:32;;;;;;;1.52;0.28;;;11.60;1.00;;;;;;7361100;19;20549;-75
2023/01/15 02:13:06;;;;;;;0.25;0.20;;;11.60;1.00;;;;;;7361943;19;20454;-76
2023/01/15 02:15:41;;;;;;;1.20;0.20;;;11.60;1.00;;;;;;7362230;19;20011;-76
2023/01/15 02:18:22;;;;;;;0.30;0.13;;;11.60;1.00;;;;;;7384399;19;20039;-75
2023/01/15 02:20:56;;;;;;;0.43;0.20;;;11.50;1.00;;;;;;7365226;19;20046;-76
2023/01/15 02:23:54;;;;;;;1.48;0.10;;;11.60;1.00;;;;;;7361007;19;20006;-76
2023/01/15 02:26:47;;;;;;;0.28;0.20;;;11.60;1.00;;;;;;7362352;19;20011;-74
2023/01/15 02:29:22;;;;;;;1.40;0.20;;;11.60;1.00;;;;;;7359317;19;20385;-75
2023/01/15 02:31:53;;;;;;;0.35;0.20;;;11.60;1.00;;;;;;7361960;19;20405;-74
2023/01/15 02:34:28;;;;;;;0.20;0.20;;;11.60;1.00;;;;;;7361740;19;20090;-75
2023/01/15 02:37:04;;;;;;;0.40;0.20;;;11.60;1.00;;;;;;7361906;19;20026;-75
2023/01/15 02:39:36;;;;;;;0.70;0.30;;;11.60;1.00;;;;;;7359741;19;20014;-76
2023/01/15 02:42:11;;;;;;;0.60;0.30;;;11.70;1.00;;;;;;7382059;19;20018;-75
2023/01/15 02:44:45;;;;;;;0.10;0.10;;;11.70;1.00;;;;;;7362854;19;20007;-75
2023/01/15 02:47:18;;;;;;;0.70;0.17;;;11.70;1.00;;;;;;7367778;19;20017;-75
2023/01/15 02:49:49;;;;;;;0.25;0.10;;;11.70;1.00;;;;;;7367593;19;20015;-76
2023/01/15 02:52:23;;;;;;;0.30;0.25;;;11.70;1.00;;;;;;7368393;19;20410;-75
2023/01/15 02:54:58;;;;;;;0.10;0.10;;;11.60;1.00;;;;;;7368627;19;20470;-75
2023/01/15 02:57:34;;;;;;;0.00;0.00;;;11.60;1.00;;;;;;7389930;19;20035;-75
2023/01/15 03:00:10;;;;;;;0.43;0.13;;;11.60;1.00;;;;;;7365292;19;20014;-75
2023/01/15 03:02:45;;;;;;;0.63;0.20;;;11.60;1.00;;;;;;7367703;19;20525;-76
2023/01/15 03:05:20;;;;;;;0.50;0.20;;;11.70;1.00;;;;;;7367413;19;20109;-75
2023/01/15 03:07:53;;;;;;;0.30;0.20;;;11.60;1.00;;;;;;7366975;19;20019;-75
2023/01/15 03:10:30;;;;;;;0.20;0.10;;;11.60;1.00;;;;;;7366057;19;20028;-76
2023/01/15 03:13:05;;;;;;;0.50;0.10;;;11.60;1.00;;;;;;7367230;19;20021;-75
2023/01/15 03:18:30;;;;;;;1.95;0.20;;;11.70;1.00;;;;;;7388298;19;20478;-76
2023/01/15 03:21:05;;;;;;;0.30;0.10;;;11.70;1.00;;;;;;7367532;19;20035;-75
2023/01/15 03:23:39;;;;;;;1.02;0.10;;;11.70;1.00;;;;;;7366704;19;20474;-76
2023/01/15 03:26:09;;;;;;;0.28;0.10;;;11.70;1.00;;;;;;7368252;19;20015;-75
2023/01/15 03:28:43;;;;;;;0.80;0.30;;;11.70;1.00;;;;;;7365702;19;20029;-76
2023/01/15 03:31:13;;;;;;;0.10;0.10;;;11.70;1.00;;;;;;7367127;19;20014;-75
2023/01/15 03:33:43;;;;;;;0.10;0.10;;;11.70;1.00;;;;;;7370174;19;20111;-76
2023/01/15 03:36:13;;;;;;;0.10;0.10;;;11.70;1.00;;;;;;7388708;19;20014;-75
2023/01/15 03:38:46;;;;;;;0.35;0.17;;;11.80;1.00;;;;;;7365218;19;20022;-76
2023/01/15 03:41:20;;;;;;;1.20;0.10;;;11.80;1.00;;;;;;7366322;19;20476;-75
2023/01/15 03:44:02;;;;;;;0.10;0.10;;;11.80;1.00;;;;;;7366687;19;20022;-75
2023/01/15 03:46:52;;;;;;;0.60;0.20;;;11.90;1.00;;;;;;7366592;19;20018;-75
2023/01/15 03:49:31;;;;;;;0.20;0.10;;;11.90;1.00;;;;;;7364354;19;20021;-76
2023/01/15 03:52:05;;;;;;;0.38;0.20;;;11.90;1.00;;;;;;7366426;19;20019;-75
2023/01/15 03:54:45;;;;;;;0.10;0.10;;;11.90;1.00;;;;;;7366206;19;20010;-74
2023/01/15 03:57:21;;;;;;;0.52;0.22;;;11.90;1.00;;;;;;7386444;19;20017;-76
2023/01/15 03:59:58;;;;;;;0.30;0.20;;;11.90;1.00;;;;;;7363032;19;20489;-75
2023/01/15 04:02:31;;;;;;;0.10;0.10;;;11.90;1.00;;;;;;7365543;19;20014;-75
2023/01/15 04:05:02;;;;;;;0.25;0.20;;;11.90;1.00;;;;;;7365772;19;20022;-75
2023/01/15 04:07:32;;;;;;;0.30;0.10;;;11.90;1.00;;;;;;7365011;19;20015;-75
2023/01/15 04:10:03;;;;;;;0.20;0.10;;;11.90;1.00;;;;;;7363973;19;20013;-76
2023/01/15 04:12:34;;;;;;;0.13;0.10;;;12.00;1.00;;;;;;7370844;19;20010;-75
2023/01/15 04:15:07;;;;;;;0.45;0.10;;;11.90;1.00;;;;;;7386585;19;20077;-76
2023/01/15 04:17:37;;;;;;;0.20;0.15;;;11.90;1.00;;;;;;7365074;19;20014;-75
2023/01/15 04:20:09;;;;;;;0.25;0.10;;;11.90;1.00;;;;;;7364130;19;20482;-76
2023/01/15 04:22:39;;;;;;;0.43;0.20;;;12.00;1.00;;;;;;7365281;19;20018;-75
2023/01/15 04:25:10;;;;;;;0.10;0.10;;;11.90;1.00;;;;;;7365026;19;20014;-75
2023/01/15 04:27:40;;;;;;;0.30;0.20;;;11.90;1.00;;;;;;7365224;19;20032;-75
2023/01/15 04:30:16;;;;;;;0.30;0.13;;;11.90;1.00;;;;;;7383173;19;20018;-75
2023/01/15 04:32:46;;;;;;;1.10;0.10;;;12.00;1.00;;;;;;7366606;19;20017;-76
2023/01/15 04:35:15;;;;;;;1.95;0.13;;;12.00;1.00;;;;;;7364375;19;20014;-75
2023/01/15 04:37:45;;;;;;;1.35;0.15;;;11.90;1.00;;;;;;7365946;19;20012;-75
2023/01/15 04:44:05;;;;;;;0.85;0.25;;;11.90;1.00;;;;;;7362727;19;20038;-76
2023/01/15 04:45:51;;;;;;;0.10;0.10;;;11.90;1.00;;;;;;7364745;19;20010;-75
2023/01/15 04:48:21;;;;;;;0.40;0.10;;;11.90;1.00;;;;;;7384434;19;20371;-76
2023/01/15 04:50:51;;;;;;;1.25;0.10;;;12.00;1.00;;;;;;7364454;19;20014;-75
2023/01/15 04:53:21;;;;;;;0.50;0.32;;;11.90;1.00;;;;;;7363944;19;20021;-77
2023/01/15 04:55:50;;;;;;;1.08;0.32;;;11.90;1.00;;;;;;7364204;19;21479;-75
2023/01/15 04:58:20;;;;;;;0.10;0.10;;;11.90;1.00;;;;;;7363784;19;20034;-75
2023/01/15 05:00:52;;;;;;;0.30;0.10;;;11.80;1.00;;;;;;7363927;19;20010;-75
2023/01/15 05:03:22;;;;;;;0.17;0.10;;;11.80;1.00;;;;;;7385220;19;20078;-75
2023/01/15 05:05:52;;;;;;;0.35;0.20;;;11.70;1.00;;;;;;7363964;19;20017;-73
2023/01/15 05:08:22;;;;;;;1.52;0.30;;;10.90;5.80;;;;;;7362863;19;20014;-76
2023/01/15 05:10:52;;;;;;;1.60;0.30;;;9.50;27.10;;;;;;7363934;19;20026;-76
2023/01/15 05:13:22;;;;;;;3.90;0.55;;;9.10;37.90;;;;;;7364182;19;20013;-76
2023/01/15 05:15:54;;;;;;;0.50;0.40;;;9.00;41.40;;;;;;7363350;19;20023;-77
2023/01/15 05:18:24;;;;;;;0.25;0.20;;;8.70;41.10;;;;;;7383914;19;20021;-77
2023/01/15 05:20:54;;;;;;;0.30;0.20;;;8.60;41.00;;;;;;7363388;19;20073;-76
2023/01/15 05:23:23;;;;;;;0.30;0.20;;;8.50;42.80;;;;;;7363104;19;20015;-76
2023/01/15 05:25:53;;;;;;;0.10;0.10;;;8.50;43.70;;;;;;7364427;19;20007;-77
2023/01/15 05:28:23;;;;;;;1.25;0.30;;;8.40;43.30;;;;;;7362500;19;20018;-76
2023/01/15 05:30:55;;;;;;;0.30;0.20;;;8.30;43.60;;;;;;7361597;19;20015;-75
2023/01/15 05:33:25;;;;;;;0.40;0.30;;;8.20;42.60;;;;;;7388465;19;20018;-76
2023/01/15 05:35:55;;;;;;;0.40;0.25;;;8.20;44.20;;;;;;7362206;19;20015;-76
2023/01/15 05:38:25;;;;;;;0.28;0.20;;;8.20;44.20;;;;;;7362527;19;20006;-74
2023/01/15 05:40:54;;;;;;;0.40;0.30;;;8.10;42.80;;;;;;7362421;19;20672;-75
2023/01/15 05:43:24;;;;;;;0.68;0.30;;;8.00;38.50;;;;;;7361692;19;20018;-75
2023/01/15 05:45:57;;;;;;;0.70;0.20;;;7.80;37.40;;;;;;7362813;19;20029;-76
2023/01/15 05:48:26;;;;;;;0.80;0.40;;;7.80;38.80;;;;;;7383016;19;20025;-76
2023/01/15 05:50:56;;;;;;;0.63;0.30;;;7.80;40.00;;;;;;7360084;19;20493;-75
2023/01/15 05:53:27;;;;;;;0.82;0.30;;;7.70;40.20;;;;;;7362297;19;20006;-74
2023/01/15 05:55:57;;;;;;;1.33;0.40;;;7.60;41.00;;;;;;7362499;19;20777;-76
2023/01/15 05:58:27;;;;;;;3.13;0.40;;;7.60;41.60;;;;;;7361585;19;20466;-76
2023/01/15 06:00:59;;;;;;;0.50;0.30;;;7.60;42.40;;;;;;7362430;19;20065;-77
2023/01/15 06:03:29;;;;;;;2.08;0.70;;;7.60;42.30;;;;;;7385288;19;20104;-77
2023/01/15 06:05:59;;;;;;;0.50;0.50;;;7.60;44.20;;;;;;7365269;19;20025;-76
2023/01/15 06:08:29;;;;;;;1.05;0.45;;;7.50;44.20;;;;;;7359488;19;20368;-76
2023/01/15 06:10:59;;;;;;;0.70;0.60;;;7.50;44.20;;;;;;7361194;19;20013;-77
2023/01/15 06:13:29;;;;;;;1.23;0.70;;;7.50;45.30;;;;;;7361589;19;20017;-76
2023/01/15 06:16:01;;;;;;;1.10;0.75;;;7.50;45.00;;;;;;7361079;19;20470;-77
2023/01/15 06:18:32;;;;;;;0.75;0.75;;;7.40;45.40;;;;;;7380999;19;20526;-78
2023/01/15 06:21:05;;;;;;;1.20;0.90;;;7.50;46.10;;;;;;7382440;19;20343;-76
2023/01/15 06:23:35;;;;;;;1.58;1.00;;;7.50;45.30;;;;;;7360820;19;20014;-77
2023/01/15 06:26:07;;;;;;;1.25;0.77;;;7.50;45.50;;;;;;7362382;19;20603;-77
2023/01/15 06:28:37;;;;;;;1.83;1.08;;;7.40;45.00;;;;;;7360146;19;20509;-77
2023/01/15 06:31:11;;;;;;;1.45;0.70;;;7.40;44.10;;;;;;7359766;19;20018;-77
2023/01/15 06:33:41;;;;;;;0.75;0.60;;;7.40;44.20;;;;;;7364873;19;20733;-77
2023/01/15 06:36:13;;;;;;;0.88;0.45;;;7.30;42.60;;;;;;7382093;19;20556;-76
2023/01/15 06:38:44;;;;;;;0.70;0.57;;;7.30;39.50;;;;;;7359442;19;20497;-77
2023/01/15 06:49:30;;;;;;;0.47;0.40;;;7.10;30.50;;;;;;7359497;19;20026;-77
2023/01/15 06:52:00;;;;;;;0.88;0.35;;;7.00;30.80;;;;;;7360647;19;20478;-77
2023/01/15 06:54:30;;;;;;;0.40;0.30;;;6.90;31.20;;;;;;7381871;19;20019;-76
2023/01/15 06:57:00;;;;;;;0.68;0.30;;;6.80;32.70;;;;;;7360109;19;20015;-76
2023/01/15 06:59:30;;;;;;;1.23;0.30;;;6.80;33.50;;;;;;7360648;19;20034;-76
2023/01/15 07:02:02;;;;;;;1.13;0.50;;;6.70;34.00;;;;;;7361417;19;20026;-76
2023/01/15 07:04:33;;;;;;;0.30;0.30;;;6.70;35.20;;;;;;7360374;19;20015;-76
2023/01/15 07:07:03;;;;;;;0.55;0.40;;;6.70;34.90;;;;;;7360081;19;20014;-74
2023/01/15 07:09:32;;;;;;;0.40;0.30;;;6.60;32.90;;;;;;7366322;19;20019;-75
2023/01/15 07:12:02;;;;;;;0.60;0.30;;;6.50;31.60;;;;;;7381638;19;20015;-74
2023/01/15 07:14:32;;;;;;;0.52;0.20;;;6.50;33.00;;;;;;7359439;19;20018;-74
2023/01/15 07:17:05;;;;;;;0.25;0.20;;;6.50;33.40;;;;;;7359632;19;20018;-74
2023/01/15 07:19:34;;;;;;;0.20;0.20;;;6.40;33.60;;;;;;7359013;19;20022;-76
2023/01/15 07:22:04;;;;;;;1.30;0.28;;;6.30;30.60;;;;;;7359666;19;20078;-75
2023/01/15 07:24:35;;;;;;;0.10;0.10;;;6.30;30.00;;;;;;7360627;19;20371;-76
2023/01/15 07:27:05;;;;;;;0.10;0.10;;;6.20;29.00;;;;;;7380793;19;20019;-75
2023/01/15 07:29:35;;;;;;;0.30;0.20;;;6.20;28.60;;;;;;7357539;19;20027;-76
2023/01/15 07:32:08;;;;;;;0.10;0.10;;;6.20;29.60;;;;;;7366000;19;20010;-76
2023/01/15 07:34:37;;;;;;;0.20;0.15;;;6.10;27.10;;;;;;7366946;19;20499;-75
2023/01/15 07:37:07;;;;;;;0.22;0.20;;;6.10;28.20;;;;;;7367043;19;20082;-76
2023/01/15 07:39:37;;;;;;;0.38;0.20;;;6.20;27.30;;;;;;7364420;19;20074;-76
2023/01/15 07:50:18;;;;;;;;;;;6.00;26.40;;;;;;7364637;19;20025;-75
2023/01/15 07:52:48;;;;;;;0.60;0.20;;;6.00;24.80;;;;;;7365722;19;19915;-76
2023/01/15 07:55:21;;;;;;;0.30;0.20;;;6.00;27.00;;;;;;7366975;19;20507;-76
2023/01/15 07:57:52;;;;;;;0.70;0.20;;;6.00;27.00;;;;;;7368847;19;20015;-76
2023/01/15 08:00:24;;;;;;;0.50;0.30;;;6.00;27.10;;;;;;7384529;19;20018;-76
2023/01/15 08:02:57;;;;;;;1.13;0.52;;;6.00;27.00;;;;;;7365481;19;20017;-76
2023/01/15 08:05:27;;;;;;;0.52;0.30;;;6.10;27.10;;;;;;7364986;19;20394;-76
2023/01/15 08:07:56;;;;;;;0.30;0.30;;;6.00;27.00;;;;;;7365792;19;20022;-76
2023/01/15 08:10:26;;;;;;;1.48;0.20;;;6.10;27.40;;;;;;7363939;19;20021;-75
2023/01/15 08:15:42;;;;;;;0.60;0.30;;;6.10;27.10;;;;;;7364980;19;20632;-76
2023/01/15 08:18:16;;;;;;;0.20;0.20;;;6.10;27.10;;;;;;7386440;19;20041;-76
2023/01/15 08:20:46;;;;;;;1.02;0.70;;;6.00;27.00;;;;;;7364165;19;20010;-75
2023/01/15 08:23:16;;;;;;;0.30;0.30;;;6.10;29.80;;;;;;7364601;19;20010;-75
2023/01/15 08:25:45;;;;;;;1.73;0.40;;;6.10;29.30;;;;;;7366059;19;20019;-76
2023/01/15 08:28:15;;;;;;;2.15;0.40;;;6.10;30.00;;;;;;7364648;19;20106;-75
2023/01/15 08:30:45;;;;;;;1.30;0.25;;;6.00;28.90;;;;;;7364531;19;20022;-75
2023/01/15 08:33:17;;;;;;;0.55;0.30;;;6.00;27.20;;;;;;7389359;19;20015;-75
2023/01/15 08:35:47;;;;;;;0.85;0.40;;;6.00;28.90;;;;;;7363935;19;20010;-75
2023/01/15 08:38:17;;;;;;;0.50;0.30;;;6.00;27.10;;;;;;7365135;19;20025;-76
2023/01/15 08:41:02;;;;;;;0.20;0.10;;;6.10;26.30;;;;;;7364646;19;20490;-75
2023/01/15 08:43:33;;;;;;;0.20;0.20;;;6.00;20.90;;;;;;7364770;19;20182;-75
2023/01/15 08:46:05;;;;;;;2.90;1.00;;;6.00;23.10;;;;;;7364430;19;20527;-75
2023/01/15 08:48:38;;;;;;;3.45;1.55;;;6.00;23.60;;;;;;7360035;19;20018;-75
2023/01/15 08:51:09;;;;;;;4.85;1.88;;;6.00;24.20;;;;;;7386301;19;20714;-74
2023/01/15 08:53:40;;;;;;;3.30;1.67;;;5.90;20.90;;;;;;7366446;19;20081;-75
2023/01/15 08:56:14;;;;;;;2.05;1.10;;;5.90;22.20;;;;;;7364237;19;20017;-75
2023/01/15 08:58:44;;;;;;;3.10;1.60;;;5.90;22.80;;;;;;7362717;19;20020;-74
2023/01/15 09:01:15;;;;;;;2.25;1.10;;;5.80;22.80;;;;;;7363801;19;20015;-74
2023/01/15 09:03:48;;;;;;;1.73;1.23;;;5.80;22.10;;;;;;7363444;19;20014;-75
2023/01/15 09:06:17;;;;;;;1.90;1.30;;;5.80;22.80;;;;;;7385680;19;20018;-75
2023/01/15 09:08:47;;;;;;;1.63;0.40;;;5.80;22.60;;;;;;7362290;19;20139;-74
2023/01/15 09:11:17;;;;;;;1.35;0.47;;;5.70;22.60;;;;;;7362389;19;20478;-76
2023/01/15 09:13:49;;;;;;;0.95;0.68;;;5.70;23.40;;;;;;7362867;19;20011;-76
2023/01/15 09:16:19;;;;;;;1.02;0.47;;;5.70;22.50;;;;;;7363343;19;20450;-74
2023/01/15 09:18:52;;;;;;;2.55;0.60;;;5.70;24.00;;;;;;7362690;19;20014;-74
2023/01/15 09:21:22;;;;;;;1.08;0.50;;;5.80;24.50;;;;;;7384748;19;20102;-76
2023/01/15 09:23:52;;;;;;;1.80;0.70;;;5.60;24.20;;;;;;7362213;19;20414;-75
2023/01/15 09:26:30;;;;;;;1.80;1.23;;;5.70;25.20;;;;;;7363511;19;20006;-76
2023/01/15 09:29:00;;;;;;;2.67;1.70;;;5.70;25.40;;;;;;7360368;19;20035;-75
2023/01/15 09:31:30;;;;;;;1.55;1.13;;;5.70;24.80;;;;;;7360745;19;20552;-75
2023/01/15 09:34:03;;;;;;;2.25;1.08;;;5.70;25.00;;;;;;7362777;19;20014;-76
2023/01/15 09:36:34;;;;;;;3.10;1.25;;;5.70;24.70;;;;;;7370212;19;20036;-74
2023/01/15 09:39:07;;;;;;;2.17;0.95;;;5.60;23.40;;;;;;7382528;19;20025;-75
2023/01/15 09:42:07;;;;;;;2.40;1.42;;;5.70;23.50;;;;;;7362350;19;20006;-75
2023/01/15 09:45:00;;;;;;;2.13;0.80;;;5.70;22.60;;;;;;7362324;19;20038;-75
2023/01/15 09:47:35;;;;;;;0.60;0.35;;;5.80;22.50;;;;;;7362781;19;20027;-75
2023/01/15 09:50:22;;;;;;;0.50;0.35;;;5.70;21.10;;;;;;7365121;19;20023;-76
2023/01/15 09:53:07;;;;;;;0.73;0.40;;;5.70;20.00;;;;;;7361128;19;20488;-76
2023/01/15 09:55:46;;;;;;;0.60;0.30;;;5.60;21.10;;;;;;7362346;19;20018;-75
2023/01/15 09:58:18;;;;;;;1.40;0.60;;;5.60;22.00;;;;;;7362306;19;20015;-76
2023/01/15 10:00:49;;;;;;;2.25;0.50;;;5.70;23.30;;;;;;7362507;19;20014;-75
2023/01/15 10:03:29;;;;;;;0.73;0.30;;;5.60;23.10;;;;;;7383010;19;20562;-75
2023/01/15 10:06:11;;;;;;;0.50;0.30;;;5.70;20.00;;;;;;7361794;19;20513;-76
2023/01/15 10:08:45;;;;;;;0.80;0.50;;;5.60;19.50;;;;;;7360692;19;20017;-76
2023/01/15 10:12:34;;;;;;;1.45;0.40;;;5.60;20.00;;;;;;7361771;19;20018;-75
2023/01/15 10:14:46;;;;;;;0.60;0.30;;;5.50;17.00;;;;;;7361199;19;20020;-75
2023/01/15 10:17:30;;;;;;;0.82;0.35;;;5.50;17.70;;;;;;7361866;19;20434;-75
2023/01/15 10:20:00;;;;;;;0.28;0.20;;;5.40;19.60;;;;;;7361303;19;20479;-76
2023/01/15 10:22:44;;;;;;;0.30;0.28;;;5.40;19.80;;;;;;7361405;19;20474;-76
2023/01/15 10:25:18;;;;;;;0.75;0.50;;;5.20;16.00;;;;;;7362544;19;20017;-75
2023/01/15 10:27:52;;;;;;;0.82;0.50;;;5.40;18.60;;;;;;7361903;19;20466;-76
2023/01/15 10:30:32;;;;;;;0.70;0.40;;;5.40;17.00;;;;;;7381123;19;20046;-76
2023/01/15 10:33:12;;;;;;;0.95;0.50;;;5.30;16.50;;;;;;7362184;19;20189;-76
2023/01/15 10:35:46;;;;;;;1.80;0.90;;;5.30;18.10;;;;;;7361199;19;20582;-75
2023/01/15 10:38:24;;;;;;;1.48;0.90;;;5.20;17.20;;;;;;7361517;19;20011;-76
2023/01/15 10:41:18;;;;;;;0.90;0.60;;;5.10;17.10;;;;;;7360552;19;20014;-75
2023/01/15 10:43:52;;;;;;;4.43;0.98;;;5.00;17.40;;;;;;7361694;19;20025;-75
2023/01/15 10:46:27;;;;;;;1.25;0.73;;;4.90;19.60;;;;;;7362035;19;20014;-76
2023/01/15 10:48:59;;;;;;;1.67;0.95;;;4.90;20.70;;;;;;7359476;19;20021;-76
2023/01/15 10:51:34;;;;;;;3.60;1.10;;;4.80;19.70;;;;;;7382698;19;20196;-76
2023/01/15 10:54:14;;;;;;;3.45;1.65;;;4.70;19.00;;;;;;7360466;19;20097;-76
2023/01/15 10:56:49;;;;;;;3.40;1.60;;;4.60;20.90;;;;;;7360335;19;20726;-77
2023/01/15 10:59:22;;;;;;;1.90;0.90;;;4.60;19.40;;;;;;7358843;19;20030;-76
2023/01/15 11:01:55;;;;;;;1.27;0.70;;;4.50;19.80;;;;;;7362197;19;20419;-76
2023/01/15 11:04:26;;;;;;;1.73;0.70;;;4.60;20.30;;;;;;7360099;19;20015;-76
2023/01/15 11:06:56;;;;;;;1.55;0.60;;;4.60;21.80;;;;;;7366115;19;20550;-77
2023/01/15 11:09:33;;;;;;;1.23;0.65;;;4.50;20.80;;;;;;7386959;19;20014;-74
2023/01/15 11:20:33;;;;;;;1.27;0.65;;;4.40;22.70;;;;;;7365833;19;20022;-76
2023/01/15 11:23:09;;;;;;;0.80;0.57;;;4.50;23.00;;;;;;7367282;19;20034;-77
2023/01/15 11:25:50;;;;;;;1.02;0.70;;;4.40;23.00;;;;;;7368256;19;20010;-77
2023/01/15 11:28:31;;;;;;;0.95;0.60;;;4.50;23.60;;;;;;7366053;19;20010;-76
2023/01/15 11:31:01;;;;;;;1.90;0.52;;;4.30;21.10;;;;;;7366583;19;20478;-76
2023/01/15 11:33:33;;;;;;;1.67;0.85;;;4.10;20.00;;;;;;7390638;19;20022;-74
2023/01/15 11:36:05;;;;;;;1.40;0.70;;;4.20;21.70;;;;;;7366603;19;20037;-75
2023/01/15 11:38:46;;;;;;;1.65;0.90;;;4.20;22.10;;;;;;7364805;19;20019;-75
2023/01/15 11:50:42;;;;;;;1.88;0.80;;;4.20;21.80;;;;;;7368326;19;20021;-76
2023/01/15 11:52:38;;;;;;;1.52;0.70;;;4.30;21.60;;;;;;7365563;19;20029;-75
2023/01/15 11:55:14;;;;;;;1.92;0.98;;;4.00;17.80;;;;;;7365812;19;20020;-76
2023/01/15 11:57:47;;;;;;;1.65;0.57;;;4.00;18.90;;;;;;7366133;19;20022;-75
2023/01/15 12:00:23;;;;;;;1.52;0.60;;;4.20;20.10;;;;;;7383846;19;20022;-75
2023/01/15 12:02:58;;;;;;;2.88;0.85;;;4.20;17.80;;;;;;7365405;19;20586;-76
2023/01/15 12:05:32;;;;;;;2.70;0.68;;;4.20;17.00;;;;;;7365566;19;20418;-76
2023/01/15 12:08:12;;;;;;;4.60;1.17;;;4.20;17.40;;;;;;7366053;19;20057;-77
2023/01/15 12:14:02;;;;;;;1.02;0.63;;;4.40;16.90;;;;;;7365101;19;20007;-76
2023/01/15 12:16:40;;;;;;;2.90;0.50;;;4.50;14.80;;;;;;7364982;19;20538;-76
2023/01/15 12:19:18;;;;;;;1.35;0.47;;;4.40;12.20;;;;;;7364731;19;20014;-75
2023/01/15 12:22:10;;;;;;;1.05;0.43;;;4.40;9.80;;;;;;7366119;19;20014;-75
2023/01/15 12:24:56;;;;;;;2.20;0.50;;;4.50;10.50;;;;;;7366388;19;20014;-77
2023/01/15 12:27:51;;;;;;;1.30;0.57;;;4.60;9.80;;;;;;7387474;19;20079;-75
2023/01/15 12:30:26;;;;;;;;;;;4.60;8.50;;;;;;7362545;19;20014;-76
2023/01/15 12:33:03;;;;;;;0.63;0.30;;;4.70;10.00;;;;;;7367333;19;20014;-76
2023/01/15 12:35:34;;;;;;;1.63;0.50;;;4.70;6.70;;;;;;7365439;19;20048;-76
2023/01/15 12:38:14;;;;;;;1.02;0.50;;;4.70;6.00;;;;;;7367739;19;20065;-76
2023/01/15 12:40:49;;;;;;;1.92;0.70;;;4.70;5.10;;;;;;7364987;19;20387;-76
2023/01/15 12:46:15;;;;;;;0.60;0.47;;;4.80;4.50;;;;;;7363925;19;20025;-76
2023/01/15 12:48:53;;;;;;;1.20;0.40;;;4.80;3.10;;;;;;7363598;19;20018;-77
2023/01/15 12:51:30;;;;;;;1.67;0.70;;;4.80;4.60;;;;;;7385609;19;20018;-77
2023/01/15 12:54:05;;;;;;;7.65;3.22;;;4.90;5.30;;;;;;7362702;19;20029;-77
2023/01/15 12:56:48;;;;;;;1.80;0.73;;;4.90;4.90;;;;;;7363903;19;20011;-78
2023/01/15 12:59:24;;;;;;;3.38;0.73;;;5.00;4.50;;;;;;7362502;19;20015;-78
2023/01/15 13:02:08;;;;;;;3.35;0.95;;;5.00;3.10;;;;;;7364472;19;20014;-78
2023/01/15 13:04:47;;;;;;;1.52;0.45;;;5.00;3.70;;;;;;7362771;19;20413;-78
2023/01/15 13:07:23;;;;;;;2.05;0.70;;;5.10;2.70;;;;;;7363362;19;20018;-77
2023/01/15 13:10:05;;;;;;;6.18;0.93;;;5.20;4.10;;;;;;7362460;19;20006;-78
2023/01/15 13:12:36;;;;;;;1.90;0.65;;;5.20;4.00;;;;;;7363335;19;20085;-78
2023/01/15 13:15:07;;;;;;;2.10;0.65;;;5.30;2.30;;;;;;7385078;19;20374;-78
2023/01/15 13:17:55;;;;;;;4.95;2.05;;;5.30;1.80;;;;;;7362921;19;20109;-79
2023/01/15 13:20:35;;;;;;;2.67;0.90;;;5.40;3.30;;;;;;7362093;19;20054;-78
2023/01/15 13:23:10;;;;;;;3.10;0.90;;;5.30;1.60;;;;;;7363713;19;20014;-77
2023/01/15 13:25:53;;;;;;;2.80;1.00;;;5.20;1.00;;;;;;7364549;19;20022;-78
2023/01/15 13:28:54;;;;;;;1.88;0.73;;;5.40;1.80;;;;;;7361001;19;20011;-78
2023/01/15 13:31:45;;;;;;;3.67;0.93;;;5.30;1.00;;;;;;7363438;19;20498;-78
2023/01/15 13:34:25;;;;;;;2.70;0.77;;;5.40;1.00;;;;;;7365969;19;20058;-78
2023/01/15 13:36:59;;;;;;;2.30;0.75;;;5.40;1.00;;;;;;7363958;19;20025;-79
2023/01/15 13:39:38;;;;;;;1.88;0.70;;;5.40;1.00;;;;;;7382620;19;20035;-77
2023/01/15 13:45:25;;;;;;;1.92;0.60;;;5.60;1.00;;;;;;7362164;19;20018;-79
2023/01/15 13:47:58;;;;;;;2.28;0.60;;;5.60;1.00;;;;;;7361573;19;20501;-79
2023/01/15 13:50:33;;;;;;;1.70;1.02;;;5.60;1.00;;;;;;7361329;19;20014;-79
2023/01/15 13:53:08;;;;;;;1.10;0.60;;;5.60;1.00;;;;;;7362778;19;20027;-77
2023/01/15 13:55:42;;;;;;;0.88;0.50;;;5.70;1.00;;;;;;7361175;19;20026;-78
2023/01/15 13:58:28;;;;;;;2.05;0.80;;;5.70;1.00;;;;;;7361387;19;20523;-78
2023/01/15 14:01:07;;;;;;;3.33;0.77;;;5.70;1.00;;;;;;7362318;19;20503;-80
2023/01/15 14:03:39;;;;;;;3.60;0.60;;;5.70;1.00;;;;;;7361232;19;20010;-79
2023/01/15 14:06:12;;;;;;;2.92;0.60;;;5.80;1.00;;;;;;7383279;19;20018;-80
2023/01/15 14:08:44;;;;;;;4.90;0.95;;;5.80;1.00;;;;;;7360555;19;20588;-79
2023/01/15 14:11:35;;;;;;;7.07;0.70;;;5.80;1.00;;;;;;7361324;19;20018;-79
2023/01/15 14:14:31;;;;;;;5.93;0.90;;;5.90;1.00;;;;;;7360815;19;20089;-79
2023/01/15 14:17:22;;;;;;;2.08;0.70;;;5.90;1.00;;;;;;7360909;19;20090;-79
2023/01/15 14:20:08;;;;;;;2.42;0.60;;;5.90;1.00;;;;;;7361316;19;20811;-79
2023/01/15 14:22:56;;;;;;;3.90;0.80;;;5.90;1.00;;;;;;7361233;19;20014;-79
2023/01/15 14:25:37;;;;;;;4.38;0.70;;;5.90;1.00;;;;;;7362716;19;20416;-79
2023/01/15 14:28:24;;;;;;;2.45;0.60;;;6.00;1.00;;;;;;7361210;19;20090;-79
2023/01/15 14:31:23;;;;;;;3.00;1.02;;;6.00;1.00;;;;;;7364571;19;20025;-79
2023/01/15 14:34:08;;;;;;;3.53;0.95;;;6.00;1.00;;;;;;7361689;19;20396;-79